Time;durP1;ratioP1;P1;durP2;ratioP2;P2;SDS_P1;SDS_P2;PMS_P1;PMS_P2;Temp;Humidity;BMP_temperature;BMP_pressure;BME280_temperature;BME280_humidity;BME280_pressure;Samples;Min_cycle;Max_cycle;Signal;HPM_P1;HPM_P2
2023/01/05 00:00:21;;;;;;;26.03;6.30;;;;;;;;;;6212669;23;20159;-74
2023/01/05 00:02:46;;;;;;;23.23;4.00;;;;;;;;;;6212438;23;20474;-74
2023/01/05 00:05:12;;;;;;;20.47;4.37;;;;;;;;;;6211582;23;20171;-75
2023/01/05 00:07:37;;;;;;;14.20;3.40;;;;;;;;;;6211015;23;20176;-75
2023/01/05 00:10:02;;;;;;;12.13;3.97;;;;;;;;;;6183424;23;20184;-74
2023/01/05 00:23:23;;;;;;;18.50;3.90;;;;;;;;;;6209828;23;20359;-74
2023/01/05 00:25:49;;;;;;;17.30;3.43;;;;;;;;;;6211521;23;20714;-73
2023/01/05 00:28:14;;;;;;;18.00;4.13;;;;;;;;;;6209721;23;20176;-74
2023/01/05 00:30:41;;;;;;;21.87;3.70;;;;;;;;;;6208211;23;20631;-74
2023/01/05 00:33:10;;;;;;;16.80;3.63;;;;;;;;;;6210299;23;20152;-74
2023/01/05 00:35:36;;;;;;;18.37;4.60;;;;;;;;;;6210297;23;21268;-74
2023/01/05 00:38:04;;;;;;;17.57;3.77;;;;;;;;;;6183368;23;20391;-74
2023/01/05 00:40:32;;;;;;;21.83;3.70;;;;;;;;;;6207493;23;20562;-74
2023/01/05 00:42:57;;;;;;;23.03;4.03;;;;;;;;;;6177977;23;20375;-74
2023/01/05 00:45:23;;;;;;;15.70;3.60;;;;;;;;;;6204340;23;20409;-75
2023/01/05 00:47:50;;;;;;;30.20;6.10;;;;;;;;;;6206079;23;20218;-75
2023/01/05 00:50:16;;;;;;;19.03;4.03;;;;;;;;;;6182096;23;20195;-74
2023/01/05 00:52:42;;;;;;;25.27;4.03;;;;;;;;;;6209860;23;20870;-74
2023/01/05 00:55:07;;;;;;;24.07;4.57;;;;;;;;;;6182292;23;20386;-74
2023/01/05 00:57:33;;;;;;;17.20;4.40;;;;;;;;;;6210666;23;20187;-74
2023/01/05 00:59:58;;;;;;;18.83;4.70;;;;;;;;;;6209904;23;20174;-74
2023/01/05 01:02:23;;;;;;;25.47;4.73;;;;;;;;;;6211357;23;20602;-75
2023/01/05 01:04:48;;;;;;;23.97;4.20;;;;;;;;;;6210409;23;20251;-74
2023/01/05 01:07:14;;;;;;;16.53;4.77;;;;;;;;;;6210132;23;20150;-75
2023/01/05 01:09:40;;;;;;;18.17;4.10;;;;;;;;;;6183685;23;20218;-75
2023/01/05 01:12:05;;;;;;;18.93;4.17;;;;;;;;;;6184451;23;20761;-75
2023/01/05 01:14:30;;;;;;;21.63;4.27;;;;;;;;;;6183622;23;20395;-74
2023/01/05 01:16:56;;;;;;;18.80;3.93;;;;;;;;;;6181718;23;20152;-75
2023/01/05 01:19:22;;;;;;;19.20;4.33;;;;;;;;;;6180684;23;20239;-75
2023/01/05 01:21:48;;;;;;;18.03;4.43;;;;;;;;;;6180717;23;20159;-74
2023/01/05 01:24:17;;;;;;;14.07;3.83;;;;;;;;;;6180920;23;20955;-74
2023/01/05 01:26:43;;;;;;;20.60;4.47;;;;;;;;;;6182348;23;20537;-75
2023/01/05 01:29:08;;;;;;;22.73;4.90;;;;;;;;;;6204334;23;20417;-75
2023/01/05 01:31:34;;;;;;;17.17;3.57;;;;;;;;;;6207610;23;20645;-74
2023/01/05 01:33:59;;;;;;;17.47;4.00;;;;;;;;;;6180366;23;20156;-75
2023/01/05 01:36:25;;;;;;;25.23;4.93;;;;;;;;;;6181887;23;20457;-75
2023/01/05 01:38:50;;;;;;;22.77;4.83;;;;;;;;;;6210076;23;20156;-74
2023/01/05 01:41:15;;;;;;;15.00;3.90;;;;;;;;;;6211669;23;20706;-74
2023/01/05 01:43:45;;;;;;;28.13;4.90;;;;;;;;;;6210399;23;20328;-74
2023/01/05 01:46:11;;;;;;;21.13;5.77;;;;;;;;;;6184139;23;20162;-74
2023/01/05 01:48:38;;;;;;;22.77;5.50;;;;;;;;;;6209589;23;20742;-75
2023/01/05 01:51:05;;;;;;;19.20;4.80;;;;;;;;;;6184803;23;20222;-74
2023/01/05 01:53:34;;;;;;;23.17;4.80;;;;;;;;;;6184336;23;20418;-74
2023/01/05 01:56:00;;;;;;;20.03;4.60;;;;;;;;;;6210072;23;20374;-74
2023/01/05 01:58:27;;;;;;;24.80;5.70;;;;;;;;;;6210191;23;20401;-74
2023/01/05 02:00:53;;;;;;;17.77;4.00;;;;;;;;;;6211386;23;20415;-74
2023/01/05 02:03:18;;;;;;;22.23;6.30;;;;;;;;;;6186027;23;20379;-75
2023/01/05 02:05:43;;;;;;;28.97;4.97;;;;;;;;;;6208040;23;20151;-74
2023/01/05 02:08:11;;;;;;;16.60;5.07;;;;;;;;;;6209841;23;20144;-75
2023/01/05 02:10:39;;;;;;;23.00;5.27;;;;;;;;;;6208990;23;20233;-74
2023/01/05 02:13:10;;;;;;;16.03;3.90;;;;;;;;;;6210115;23;20389;-74
2023/01/05 02:15:47;;;;;;;28.10;5.83;;;;;;;;;;6209872;23;20418;-75
2023/01/05 02:18:31;;;;;;;26.80;5.53;;;;;;;;;;6209310;23;20354;-75
2023/01/05 02:21:02;;;;;;;20.83;4.93;;;;;;;;;;6209105;23;20778;-74
2023/01/05 02:23:27;;;;;;;14.87;4.20;;;;;;;;;;6184466;23;20433;-74
2023/01/05 02:25:53;;;;;;;25.73;4.83;;;;;;;;;;6210284;23;20371;-74
2023/01/05 02:28:37;;;;;;;22.50;4.20;;;;;;;;;;6209136;23;20174;-75
2023/01/05 02:31:08;;;;;;;21.30;4.63;;;;;;;;;;6210262;23;20167;-74
2023/01/05 02:33:42;;;;;;;23.83;5.57;;;;;;;;;;6209122;23;20925;-75
2023/01/05 02:36:10;;;;;;;19.10;3.93;;;;;;;;;;6210124;23;20367;-74
2023/01/05 02:38:45;;;;;;;23.37;5.03;;;;;;;;;;6209750;23;20592;-74
2023/01/05 02:41:15;;;;;;;14.30;4.07;;;;;;;;;;6183498;23;20405;-74
2023/01/05 02:43:43;;;;;;;23.90;5.43;;;;;;;;;;6210771;23;20398;-75
2023/01/05 02:46:08;;;;;;;20.90;4.70;;;;;;;;;;6183252;23;20410;-74
2023/01/05 02:48:38;;;;;;;15.60;4.50;;;;;;;;;;6181500;23;20387;-74
2023/01/05 02:51:07;;;;;;;23.47;5.10;;;;;;;;;;6183535;23;20215;-75
2023/01/05 02:53:40;;;;;;;21.90;3.93;;;;;;;;;;6208928;23;20375;-73
2023/01/05 02:56:12;;;;;;;17.90;4.40;;;;;;;;;;6183102;23;20405;-74
2023/01/05 02:58:40;;;;;;;23.23;4.77;;;;;;;;;;6209283;23;20407;-73
2023/01/05 03:01:16;;;;;;;20.60;4.20;;;;;;;;;;6210133;23;20751;-73
2023/01/05 03:04:03;;;;;;;16.67;4.23;;;;;;;;;;6183304;23;20732;-74
2023/01/05 03:06:45;;;;;;;28.80;4.00;;;;;;;;;;6208399;23;20355;-75
2023/01/05 03:09:12;;;;;;;19.17;3.87;;;;;;;;;;6209969;23;20697;-74
2023/01/05 03:14:30;;;;;;;18.97;3.90;;;;;;;;;;6208984;23;20378;-74
2023/01/05 03:16:56;;;;;;;16.87;4.40;;;;;;;;;;6184646;23;20383;-74
2023/01/05 03:19:40;;;;;;;24.40;4.80;;;;;;;;;;6207603;23;20421;-74
2023/01/05 03:36:22;;;;;;;23.53;4.47;;;;;;;;;;6211335;23;20850;-73
2023/01/05 03:38:48;;;;;;;19.67;4.70;;;;;;;;;;6185466;23;20373;-73
2023/01/05 03:41:14;;;;;;;19.03;4.17;;;;;;;;;;6212164;23;20775;-74
2023/01/05 03:43:40;;;;;;;27.13;4.90;;;;;;;;;;6212218;23;20916;-73
2023/01/05 03:46:10;;;;;;;20.17;4.73;;;;;;;;;;6211803;23;21158;-74
2023/01/05 03:48:36;;;;;;;25.90;4.53;;;;;;;;;;6184765;23;20866;-74
2023/01/05 03:51:01;;;;;;;26.97;4.33;;;;;;;;;;6212354;23;20412;-74
2023/01/05 03:53:26;;;;;;;22.90;4.73;;;;;;;;;;6184915;23;20152;-74
2023/01/05 03:55:52;;;;;;;27.57;5.87;;;;;;;;;;6183329;23;20489;-74
2023/01/05 03:58:17;;;;;;;25.67;5.77;;;;;;;;;;6210226;23;20227;-74
2023/01/05 04:00:42;;;;;;;23.03;5.87;;;;;;;;;;6210229;23;20183;-74
2023/01/05 04:03:09;;;;;;;24.00;5.30;;;;;;;;;;6184005;23;20687;-74
2023/01/05 04:05:37;;;;;;;26.83;5.50;;;;;;;;;;6204047;23;20533;-74
2023/01/05 04:08:02;;;;;;;18.80;5.53;;;;;;;;;;6208955;23;20363;-74
2023/01/05 04:10:27;;;;;;;22.50;4.67;;;;;;;;;;6207997;23;20406;-73
2023/01/05 04:12:53;;;;;;;27.10;5.73;;;;;;;;;;6209729;23;20176;-75
2023/01/05 04:15:18;;;;;;;21.13;5.50;;;;;;;;;;6209067;23;20583;-74
2023/01/05 04:17:43;;;;;;;20.33;4.90;;;;;;;;;;6182920;23;20191;-74
2023/01/05 04:20:09;;;;;;;27.30;5.50;;;;;;;;;;6207836;23;20183;-74
2023/01/05 04:22:34;;;;;;;31.63;5.80;;;;;;;;;;6219096;22;20194;-75
2023/01/05 04:25:00;;;;;;;19.63;4.93;;;;;;;;;;6222926;23;20519;-76
2023/01/05 04:27:25;;;;;;;23.40;4.10;;;;;;;;;;6249386;23;20140;-75
2023/01/05 04:29:51;;;;;;;19.93;5.27;;;;;;;;;;6250187;22;20159;-76
2023/01/05 04:32:19;;;;;;;31.67;5.90;;;;;;;;;;6245894;23;20500;-75
2023/01/05 04:34:45;;;;;;;31.00;5.57;;;;;;;;;;6250160;23;20151;-75
2023/01/05 04:37:13;;;;;;;20.90;4.80;;;;;;;;;;6249675;23;20370;-75
2023/01/05 04:39:39;;;;;;;28.17;5.53;;;;;;;;;;6250140;22;20150;-76
2023/01/05 04:42:04;;;;;;;26.17;5.83;;;;;;;;;;6249612;22;20376;-76
2023/01/05 04:44:32;;;;;;;19.27;4.47;;;;;;;;;;6247066;23;20233;-77
2023/01/05 04:46:58;;;;;;;23.83;5.70;;;;;;;;;;6248763;23;20173;-76
2023/01/05 04:49:23;;;;;;;21.30;5.57;;;;;;;;;;6245481;22;20378;-75
2023/01/05 04:51:49;;;;;;;32.57;5.17;;;;;;;;;;6246724;23;20178;-75
2023/01/05 04:54:17;;;;;;;25.20;5.63;;;;;;;;;;6249292;23;20887;-75
2023/01/05 04:56:58;;;;;;;26.90;5.30;;;;;;;;;;6250676;23;20163;-75
2023/01/05 04:59:23;;;;;;;19.63;4.70;;;;;;;;;;6256358;22;20370;-77
2023/01/05 05:01:49;;;;;;;30.77;6.13;;;;;;;;;;6251047;23;20793;-76
2023/01/05 05:04:14;;;;;;;27.03;5.00;;;;;;;;;;6254155;22;20170;-75
2023/01/05 05:06:40;;;;;;;33.13;5.70;;;;;;;;;;6254477;22;20181;-77
2023/01/05 05:09:05;;;;;;;29.13;6.33;;;;;;;;;;6251302;22;20147;-75
2023/01/05 05:11:31;;;;;;;30.20;5.67;;;;;;;;;;6251692;22;20254;-75
2023/01/05 05:14:15;;;;;;;;;;;;;;;;;;;;;
2023/01/05 05:16:41;;;;;;;29.57;5.63;;;;;;;;;;6252096;23;20175;-75
2023/01/05 05:19:09;;;;;;;34.50;6.17;;;;;;;;;;6254309;22;20369;-77
2023/01/05 05:21:44;;;;;;;25.37;5.80;;;;;;;;;;6251036;22;20245;-75
2023/01/05 05:24:10;;;;;;;32.73;6.60;;;;;;;;;;6246328;23;20508;-76
2023/01/05 05:26:38;;;;;;;29.07;5.33;;;;;;;;;;6248897;23;20459;-75
2023/01/05 05:29:04;;;;;;;23.13;5.77;;;;;;;;;;6248054;23;20151;-75
2023/01/05 05:31:29;;;;;;;27.20;5.60;;;;;;;;;;6245613;22;20459;-76
2023/01/05 05:33:55;;;;;;;23.37;4.53;;;;;;;;;;6245890;23;20155;-75
2023/01/05 05:36:23;;;;;;;30.17;6.23;;;;;;;;;;6246817;23;20173;-76
2023/01/05 05:38:49;;;;;;;33.90;6.30;;;;;;;;;;6248158;23;20214;-75
2023/01/05 05:41:15;;;;;;;17.50;4.57;;;;;;;;;;6250662;22;20877;-76
2023/01/05 05:43:41;;;;;;;31.17;5.53;;;;;;;;;;6252103;23;20296;-77
2023/01/05 05:46:06;;;;;;;32.20;6.03;;;;;;;;;;6251422;23;20242;-75
2023/01/05 05:48:35;;;;;;;27.50;5.20;;;;;;;;;;6255275;23;20535;-76
2023/01/05 05:51:00;;;;;;;21.60;5.00;;;;;;;;;;6255352;22;20661;-75
2023/01/05 05:53:26;;;;;;;16.63;3.30;;;;;;;;;;6253621;22;20366;-75
2023/01/05 05:55:51;;;;;;;20.13;4.20;;;;;;;;;;6252901;22;20139;-73
2023/01/05 05:58:17;;;;;;;24.17;5.00;;;;;;;;;;6253063;23;20144;-75
2023/01/05 06:00:43;;;;;;;12.90;3.30;;;;;;;;;;6249339;22;20171;-77
2023/01/05 06:03:08;;;;;;;13.37;2.90;;;;;;;;;;6246963;23;20375;-75
2023/01/05 06:05:39;;;;;;;12.33;3.10;;;;;;;;;;6241311;23;20626;-74
2023/01/05 06:08:04;;;;;;;13.73;2.80;;;;;;;;;;6242640;23;20155;-76
2023/01/05 06:10:30;;;;;;;15.93;3.30;;;;;;;;;;6245102;22;20386;-75
2023/01/05 06:12:57;;;;;;;18.00;2.80;;;;;;;;;;6243596;22;20143;-76
2023/01/05 06:15:23;;;;;;;10.53;2.23;;;;;;;;;;6242460;23;20187;-75
2023/01/05 06:17:48;;;;;;;8.30;1.80;;;;;;;;;;6242663;23;20366;-76
2023/01/05 06:20:15;;;;;;;13.03;2.60;;;;;;;;;;6246083;22;20175;-75
2023/01/05 06:22:41;;;;;;;14.70;2.77;;;;;;;;;;6253758;23;20171;-75
2023/01/05 06:25:07;;;;;;;10.27;1.80;;;;;;;;;;6251968;23;20421;-75
2023/01/05 06:27:33;;;;;;;13.33;1.93;;;;;;;;;;6251118;23;20370;-76
2023/01/05 06:29:58;;;;;;;11.70;1.90;;;;;;;;;;6252342;22;20382;-75
2023/01/05 06:32:24;;;;;;;4.93;1.47;;;;;;;;;;6251231;23;20147;-77
2023/01/05 06:34:49;;;;;;;7.80;1.20;;;;;;;;;;6251448;22;21097;-76
2023/01/05 06:37:15;;;;;;;3.83;1.20;;;;;;;;;;6250797;23;20155;-76
2023/01/05 06:39:40;;;;;;;3.80;1.10;;;;;;;;;;6253416;22;20179;-75
2023/01/05 06:42:06;;;;;;;3.90;1.30;;;;;;;;;;6252937;23;20212;-76
2023/01/05 06:44:32;;;;;;;4.90;0.93;;;;;;;;;;6249318;23;20202;-77
2023/01/05 06:46:57;;;;;;;3.40;0.90;;;;;;;;;;6254902;22;20582;-76
2023/01/05 06:49:23;;;;;;;3.13;0.80;;;;;;;;;;6253512;22;20173;-76
2023/01/05 06:51:48;;;;;;;3.57;0.90;;;;;;;;;;6253548;23;20139;-76
2023/01/05 06:54:14;;;;;;;3.50;0.87;;;;;;;;;;6251627;23;20207;-77
2023/01/05 06:56:39;;;;;;;3.33;0.90;;;;;;;;;;6253729;22;20147;-77
2023/01/05 06:59:05;;;;;;;4.17;0.80;;;;;;;;;;6252976;23;20495;-77
2023/01/05 07:01:30;;;;;;;5.73;0.83;;;;;;;;;;6251746;22;20266;-76
2023/01/05 07:03:56;;;;;;;2.90;0.90;;;;;;;;;;6254685;23;20529;-75
2023/01/05 07:06:40;;;;;;;2.83;0.90;;;;;;;;;;6252462;23;20151;-77
2023/01/05 07:09:06;;;;;;;5.00;1.10;;;;;;;;;;6253352;23;20197;-74
2023/01/05 07:11:32;;;;;;;2.30;0.90;;;;;;;;;;6254014;22;20382;-75
2023/01/05 07:13:57;;;;;;;3.30;1.07;;;;;;;;;;6250676;23;20159;-76
2023/01/05 07:16:23;;;;;;;3.37;0.80;;;;;;;;;;6252323;23;20230;-75
2023/01/05 07:18:48;;;;;;;6.33;0.90;;;;;;;;;;6253400;23;20147;-77
2023/01/05 07:21:14;;;;;;;2.40;0.80;;;;;;;;;;6251308;22;20649;-75
2023/01/05 07:23:39;;;;;;;6.13;1.60;;;;;;;;;;6252407;23;20186;-75
2023/01/05 07:26:27;;;;;;;3.00;1.00;;;;;;;;;;6250092;23;20147;-76
2023/01/05 07:28:53;;;;;;;3.43;0.80;;;;;;;;;;6275483;22;20148;-74
2023/01/05 07:31:18;;;;;;;3.00;0.90;;;;;;;;;;6253615;22;20382;-75
2023/01/05 07:33:44;;;;;;;3.43;1.30;;;;;;;;;;6251783;23;20152;-76
2023/01/05 07:36:09;;;;;;;3.97;0.83;;;;;;;;;;6252978;23;20151;-78
2023/01/05 07:38:35;;;;;;;2.93;1.00;;;;;;;;;;6253832;23;20151;-76
2023/01/05 07:41:01;;;;;;;2.83;0.80;;;;;;;;;;6254181;22;20254;-74
2023/01/05 07:43:26;;;;;;;2.70;1.17;;;;;;;;;;6251924;23;20185;-75
2023/01/05 07:45:55;;;;;;;3.50;1.23;;;;;;;;;;6255110;22;20143;-74
2023/01/05 07:48:21;;;;;;;4.17;1.00;;;;;;;;;;6254727;22;20230;-77
2023/01/05 07:50:46;;;;;;;2.80;0.93;;;;;;;;;;6252794;22;20398;-75
2023/01/05 07:53:12;;;;;;;4.80;1.23;;;;;;;;;;6253518;23;20147;-75
2023/01/05 07:55:37;;;;;;;5.73;1.43;;;;;;;;;;6253996;22;20269;-73
2023/01/05 07:58:03;;;;;;;6.47;1.13;;;;;;;;;;6252358;23;20230;-75
2023/01/05 08:00:28;;;;;;;6.60;1.43;;;;;;;;;;6252298;22;20175;-74
2023/01/05 08:02:55;;;;;;;9.40;2.50;;;;;;;;;;6252939;23;20159;-77
2023/01/05 08:05:20;;;;;;;5.40;1.63;;;;;;;;;;6250704;23;20179;-74
2023/01/05 08:07:54;;;;;;;4.30;1.17;;;;;;;;;;6250649;23;20385;-76
2023/01/05 08:10:29;;;;;;;3.70;1.20;;;;;;;;;;6250365;22;20163;-76
2023/01/05 08:15:43;;;;;;;5.63;1.30;;;;;;;;;;6256193;23;20358;-74
2023/01/05 08:18:09;;;;;;;7.47;1.53;;;;;;;;;;6252166;23;20366;-74
2023/01/05 08:20:34;;;;;;;8.83;1.30;;;;;;;;;;6252294;22;20227;-76
2023/01/05 08:23:00;;;;;;;6.53;1.40;;;;;;;;;;6251667;23;20182;-73
2023/01/05 08:25:38;;;;;;;5.00;1.30;;;;;;;;;;6250863;23;20174;-75
2023/01/05 08:28:03;;;;;;;6.77;1.53;;;;;;;;;;6255202;23;20158;-76
2023/01/05 08:30:29;;;;;;;10.00;1.20;;;;;;;;;;6251113;22;20890;-76
2023/01/05 08:32:54;;;;;;;7.70;1.60;;;;;;;;;;6254758;23;20155;-75
2023/01/05 08:35:20;;;;;;;4.13;1.40;;;;;;;;;;6253159;23;20151;-78
2023/01/05 08:37:54;;;;;;;8.27;1.47;;;;;;;;;;6254492;22;20151;-76
2023/01/05 08:40:19;;;;;;;9.30;1.20;;;;;;;;;;6255939;22;20166;-77
2023/01/05 08:42:48;;;;;;;7.97;1.20;;;;;;;;;;6256917;22;20359;-76
2023/01/05 08:45:17;;;;;;;5.30;1.63;;;;;;;;;;6256202;23;20171;-74
2023/01/05 08:47:43;;;;;;;6.20;1.70;;;;;;;;;;6255964;22;20355;-75
2023/01/05 08:50:11;;;;;;;13.73;2.30;;;;;;;;;;6254116;22;20393;-75
2023/01/05 08:52:37;;;;;;;5.20;1.43;;;;;;;;;;6253831;22;20147;-75
2023/01/05 08:55:04;;;;;;;6.33;1.33;;;;;;;;;;6252563;23;20397;-75
2023/01/05 08:57:39;;;;;;;6.63;1.53;;;;;;;;;;6254016;22;20404;-76
2023/01/05 09:00:05;;;;;;;4.87;1.20;;;;;;;;;;6254538;22;20401;-77
2023/01/05 09:02:30;;;;;;;3.70;0.90;;;;;;;;;;6253797;23;20370;-78
2023/01/05 09:05:01;;;;;;;5.43;1.20;;;;;;;;;;6254131;23;20491;-79
2023/01/05 09:07:27;;;;;;;5.63;1.50;;;;;;;;;;6252894;23;20155;-75
2023/01/05 09:09:53;;;;;;;7.17;1.90;;;;;;;;;;6255102;22;20452;-78
2023/01/05 09:12:18;;;;;;;5.00;1.40;;;;;;;;;;6252314;23;20155;-76
2023/01/05 09:14:44;;;;;;;5.00;1.87;;;;;;;;;;6256821;22;20147;-75
2023/01/05 09:17:09;;;;;;;6.97;2.13;;;;;;;;;;6253711;23;20166;-75
2023/01/05 09:19:50;;;;;;;9.13;1.70;;;;;;;;;;6253968;22;20488;-77
2023/01/05 09:22:35;;;;;;;7.80;1.70;;;;;;;;;;6256251;23;20198;-76
2023/01/05 09:25:03;;;;;;;5.80;1.67;;;;;;;;;;6255070;22;20440;-77
2023/01/05 09:27:28;;;;;;;9.27;1.50;;;;;;;;;;6250547;23;20379;-73
2023/01/05 09:29:54;;;;;;;7.67;1.83;;;;;;;;;;6249023;22;20394;-73
2023/01/05 09:32:19;;;;;;;9.77;1.83;;;;;;;;;;6248407;23;20602;-77
2023/01/05 09:34:48;;;;;;;12.87;2.10;;;;;;;;;;6250754;22;20258;-75
2023/01/05 09:37:14;;;;;;;7.80;1.80;;;;;;;;;;6252823;22;20611;-76
2023/01/05 09:40:00;;;;;;;8.37;1.93;;;;;;;;;;6251295;22;20431;-76
2023/01/05 09:42:29;;;;;;;11.13;2.07;;;;;;;;;;6255196;22;20457;-76
2023/01/05 09:45:04;;;;;;;7.03;1.40;;;;;;;;;;6254233;22;20410;-75
2023/01/05 09:47:45;;;;;;;10.80;1.90;;;;;;;;;;6254926;23;21286;-75
2023/01/05 09:50:20;;;;;;;8.67;1.70;;;;;;;;;;6257163;22;20473;-75
2023/01/05 09:52:56;;;;;;;7.20;1.40;;;;;;;;;;6254989;22;20349;-77
2023/01/05 09:55:23;;;;;;;8.87;1.40;;;;;;;;;;6255078;23;20356;-76
2023/01/05 09:58:09;;;;;;;5.13;1.27;;;;;;;;;;6255900;23;20496;-76
2023/01/05 10:00:40;;;;;;;7.33;2.17;;;;;;;;;;6278208;22;20386;-76
2023/01/05 10:03:11;;;;;;;8.90;2.03;;;;;;;;;;6258258;22;20353;-76
2023/01/05 10:05:41;;;;;;;12.80;2.20;;;;;;;;;;6252912;23;21007;-75
2023/01/05 10:08:11;;;;;;;7.03;1.33;;;;;;;;;;6247329;23;20394;-76
2023/01/05 10:14:00;;;;;;;9.00;1.83;;;;;;;;;;6160244;23;20383;-76
2023/01/05 10:16:27;;;;;;;7.93;2.00;;;;;;;;;;6243910;23;20381;-75
2023/01/05 10:18:53;;;;;;;9.33;1.70;;;;;;;;;;6252738;23;20382;-77
2023/01/05 10:21:24;;;;;;;11.33;2.20;;;;;;;;;;6255983;22;20386;-75
2023/01/05 10:23:59;;;;;;;7.10;1.63;;;;;;;;;;6257712;23;20441;-75
2023/01/05 10:26:26;;;;;;;6.47;1.70;;;;;;;;;;6255799;23;20382;-76
2023/01/05 10:29:07;;;;;;;6.77;1.63;;;;;;;;;;6251996;22;20428;-78
2023/01/05 10:31:46;;;;;;;19.53;3.50;;;;;;;;;;6255882;22;20420;-76
2023/01/05 10:34:30;;;;;;;8.10;2.00;;;;;;;;;;6257362;22;20387;-75
2023/01/05 10:37:02;;;;;;;6.83;1.70;;;;;;;;;;6258402;23;20394;-76
2023/01/05 10:39:49;;;;;;;13.07;1.67;;;;;;;;;;6251943;22;20378;-76
2023/01/05 10:42:33;;;;;;;9.80;2.03;;;;;;;;;;6255656;22;20357;-78
2023/01/05 10:45:02;;;;;;;12.90;2.23;;;;;;;;;;6254506;23;20417;-75
2023/01/05 10:47:29;;;;;;;8.17;1.93;;;;;;;;;;6252805;23;20409;-76
2023/01/05 10:49:54;;;;;;;8.97;2.20;;;;;;;;;;6250250;22;20420;-77
2023/01/05 10:52:20;;;;;;;10.60;1.90;;;;;;;;;;6254548;23;20405;-75
2023/01/05 10:55:00;;;;;;;8.13;1.57;;;;;;;;;;6251289;22;20139;-78
2023/01/05 10:57:32;;;;;;;8.30;2.30;;;;;;;;;;6251325;23;20460;-75
2023/01/05 11:00:03;;;;;;;8.33;1.87;;;;;;;;;;6244702;22;20394;-76
2023/01/05 11:02:34;;;;;;;9.90;2.50;;;;;;;;;;6250343;22;20366;-76
2023/01/05 11:05:16;;;;;;;10.50;2.07;;;;;;;;;;6203835;23;20450;-78
2023/01/05 11:07:48;;;;;;;10.13;1.70;;;;;;;;;;6181082;23;20859;-77
2023/01/05 11:10:39;;;;;;;7.90;1.93;;;;;;;;;;6209058;23;20413;-78
2023/01/05 11:13:06;;;;;;;7.90;1.83;;;;;;;;;;6176767;23;20884;-77
2023/01/05 11:15:38;;;;;;;7.37;1.63;;;;;;;;;;6206945;23;20878;-77
2023/01/05 11:18:04;;;;;;;10.67;2.20;;;;;;;;;;6206122;23;20383;-78
2023/01/05 11:20:29;;;;;;;10.07;2.43;;;;;;;;;;6208847;23;20441;-77
2023/01/05 11:22:55;;;;;;;7.30;1.80;;;;;;;;;;6208668;23;20398;-78
2023/01/05 11:25:28;;;;;;;12.27;2.27;;;;;;;;;;6208699;23;20326;-77
2023/01/05 11:31:00;;;;;;;8.53;1.53;;;;;;;;;;6200071;23;21054;-77
2023/01/05 11:33:28;;;;;;;11.70;2.90;;;;;;;;;;6207192;23;20391;-77
2023/01/05 11:35:53;;;;;;;8.87;1.97;;;;;;;;;;6209213;23;20388;-77
2023/01/05 11:38:21;;;;;;;14.43;3.87;;;;;;;;;;6211235;23;20847;-77
2023/01/05 11:40:46;;;;;;;8.27;1.63;;;;;;;;;;6211183;23;20160;-77
2023/01/05 11:43:12;;;;;;;9.33;1.70;;;;;;;;;;6210985;23;20841;-77
2023/01/05 11:45:40;;;;;;;13.00;1.97;;;;;;;;;;6212429;23;20171;-77
2023/01/05 11:48:07;;;;;;;7.13;2.50;;;;;;;;;;6211031;23;20594;-77
2023/01/05 11:50:37;;;;;;;10.07;2.33;;;;;;;;;;6211287;23;20426;-77
2023/01/05 11:53:03;;;;;;;9.37;1.63;;;;;;;;;;6210872;23;20398;-77
2023/01/05 11:55:30;;;;;;;6.40;1.80;;;;;;;;;;6212409;23;20822;-77
2023/01/05 11:58:10;;;;;;;12.03;2.10;;;;;;;;;;6211331;23;20156;-77
2023/01/05 12:00:53;;;;;;;11.80;1.73;;;;;;;;;;6210026;23;20367;-77
2023/01/05 12:03:21;;;;;;;7.10;1.87;;;;;;;;;;6213133;23;20394;-77
2023/01/05 12:05:55;;;;;;;7.60;1.90;;;;;;;;;;6210908;23;20419;-77
2023/01/05 12:08:28;;;;;;;11.33;2.50;;;;;;;;;;6211893;23;20364;-80
2023/01/05 12:11:12;;;;;;;10.87;1.90;;;;;;;;;;6212571;23;20398;-78
2023/01/05 12:13:56;;;;;;;8.50;2.10;;;;;;;;;;6214010;23;20477;-78
2023/01/05 12:16:40;;;;;;;6.63;1.50;;;;;;;;;;6214372;23;20363;-78
2023/01/05 12:19:28;;;;;;;5.03;1.50;;;;;;;;;;6208169;23;20736;-78
2023/01/05 12:22:24;;;;;;;9.23;2.13;;;;;;;;;;6204443;23;20379;-78
2023/01/05 12:24:49;;;;;;;14.30;2.20;;;;;;;;;;6212731;23;20422;-78
2023/01/05 12:27:23;;;;;;;8.53;1.90;;;;;;;;;;6212494;23;20367;-78
2023/01/05 12:30:00;;;;;;;6.40;1.47;;;;;;;;;;6212590;23;20218;-77
2023/01/05 12:32:31;;;;;;;4.77;1.33;;;;;;;;;;6207026;23;20367;-78
2023/01/05 12:35:03;;;;;;;6.80;1.87;;;;;;;;;;6210527;23;20399;-77
2023/01/05 12:37:57;;;;;;;7.80;1.63;;;;;;;;;;6207365;23;20382;-78
2023/01/05 12:40:36;;;;;;;11.17;2.20;;;;;;;;;;6197454;23;20750;-77
2023/01/05 12:43:16;;;;;;;10.57;1.83;;;;;;;;;;6213202;23;20676;-78
2023/01/05 12:45:42;;;;;;;9.37;2.07;;;;;;;;;;6204303;23;20822;-78
2023/01/05 12:48:17;;;;;;;8.43;1.90;;;;;;;;;;6209045;23;20374;-78
2023/01/05 12:50:46;;;;;;;7.77;1.70;;;;;;;;;;6211474;23;20230;-78
2023/01/05 12:53:32;;;;;;;5.97;1.40;;;;;;;;;;6209518;23;20621;-78
2023/01/05 12:56:01;;;;;;;7.67;2.23;;;;;;;;;;6211413;23;21080;-78
2023/01/05 12:58:31;;;;;;;5.50;1.33;;;;;;;;;;6210707;23;20366;-77
2023/01/05 13:00:58;;;;;;;5.67;1.60;;;;;;;;;;6212985;23;20371;-77
2023/01/05 13:03:26;;;;;;;8.33;1.70;;;;;;;;;;6211457;23;20778;-77
2023/01/05 13:06:01;;;;;;;6.27;1.33;;;;;;;;;;6210405;23;20414;-77
2023/01/05 13:08:39;;;;;;;4.57;1.63;;;;;;;;;;6210002;23;20363;-77
2023/01/05 13:11:13;;;;;;;7.27;2.03;;;;;;;;;;6210190;23;20363;-77
2023/01/05 13:13:45;;;;;;;11.17;1.73;;;;;;;;;;6209094;23;20396;-78
2023/01/05 13:16:19;;;;;;;7.13;1.90;;;;;;;;;;6210981;23;20394;-78
2023/01/05 13:18:51;;;;;;;11.00;2.03;;;;;;;;;;6210110;23;20837;-78
2023/01/05 13:21:18;;;;;;;12.63;2.40;;;;;;;;;;6209203;23;20414;-78
2023/01/05 13:23:49;;;;;;;8.07;1.90;;;;;;;;;;6210086;23;20391;-78
2023/01/05 13:26:16;;;;;;;8.03;1.77;;;;;;;;;;6210647;23;20387;-78
2023/01/05 13:28:42;;;;;;;8.30;2.37;;;;;;;;;;6202797;23;21283;-77
2023/01/05 13:31:26;;;;;;;7.63;1.90;;;;;;;;;;6209576;23;20391;-78
2023/01/05 13:33:57;;;;;;;5.80;1.77;;;;;;;;;;6213201;23;20171;-78
2023/01/05 13:36:31;;;;;;;6.63;2.10;;;;;;;;;;6213987;23;20367;-78
2023/01/05 13:39:05;;;;;;;5.50;1.47;;;;;;;;;;6214200;23;20380;-78
2023/01/05 13:41:49;;;;;;;8.20;2.27;;;;;;;;;;6213677;23;20370;-78
2023/01/05 13:44:20;;;;;;;7.20;2.20;;;;;;;;;;6216992;23;20421;-78
2023/01/05 13:46:45;;;;;;;6.03;1.90;;;;;;;;;;6212006;23;20418;-78
2023/01/05 13:49:17;;;;;;;7.63;2.20;;;;;;;;;;6211380;23;20402;-78
2023/01/05 13:51:51;;;;;;;10.93;3.03;;;;;;;;;;6211119;23;20211;-78
2023/01/05 13:54:35;;;;;;;7.60;1.80;;;;;;;;;;6212593;23;20912;-78
2023/01/05 13:57:05;;;;;;;9.00;1.60;;;;;;;;;;6215221;23;20378;-78
2023/01/05 13:59:32;;;;;;;11.27;1.93;;;;;;;;;;6212083;23;20367;-78
2023/01/05 14:01:59;;;;;;;7.70;2.20;;;;;;;;;;6213130;23;20363;-78
2023/01/05 14:04:28;;;;;;;5.70;1.60;;;;;;;;;;6216001;23;20423;-78
2023/01/05 14:07:01;;;;;;;6.80;2.23;;;;;;;;;;6214190;23;20367;-78
2023/01/05 14:09:31;;;;;;;7.77;2.20;;;;;;;;;;6215098;23;20370;-78
2023/01/05 14:12:13;;;;;;;6.93;2.20;;;;;;;;;;6216580;23;20377;-78
2023/01/05 14:14:58;;;;;;;9.40;2.57;;;;;;;;;;6220188;23;20390;-79
2023/01/05 14:17:42;;;;;;;11.87;2.50;;;;;;;;;;6221612;23;20367;-78
2023/01/05 14:20:27;;;;;;;10.23;2.10;;;;;;;;;;6222797;23;20363;-78
2023/01/05 14:22:52;;;;;;;7.13;1.80;;;;;;;;;;6222184;23;20468;-78
2023/01/05 14:25:36;;;;;;;7.90;2.10;;;;;;;;;;6219652;23;20928;-78
2023/01/05 14:28:16;;;;;;;14.77;2.73;;;;;;;;;;6220250;23;20175;-78
2023/01/05 14:30:41;;;;;;;14.70;2.90;;;;;;;;;;6217674;23;20366;-78
2023/01/05 14:33:07;;;;;;;6.10;2.20;;;;;;;;;;6221138;23;20367;-78
2023/01/05 14:35:35;;;;;;;5.37;1.80;;;;;;;;;;6220158;23;20144;-78
2023/01/05 14:38:20;;;;;;;8.33;2.50;;;;;;;;;;6217025;23;20367;-79
2023/01/05 14:40:51;;;;;;;7.10;1.60;;;;;;;;;;6214914;23;20379;-78
2023/01/05 14:43:19;;;;;;;7.13;2.43;;;;;;;;;;6213520;23;20426;-78
2023/01/05 14:45:55;;;;;;;7.33;1.90;;;;;;;;;;6208647;23;20919;-78
2023/01/05 14:48:40;;;;;;;7.03;1.97;;;;;;;;;;6208083;23;20400;-78
2023/01/05 14:51:07;;;;;;;7.17;2.03;;;;;;;;;;6208070;23;20428;-78
2023/01/05 14:53:36;;;;;;;12.40;3.20;;;;;;;;;;6215133;23;20379;-78
2023/01/05 14:56:05;;;;;;;5.73;2.40;;;;;;;;;;6212826;23;20371;-78
2023/01/05 14:58:36;;;;;;;10.50;3.10;;;;;;;;;;6213979;23;20367;-78
2023/01/05 15:01:12;;;;;;;7.50;1.90;;;;;;;;;;6213461;23;20455;-78
2023/01/05 15:03:44;;;;;;;4.83;1.90;;;;;;;;;;6239454;23;20407;-78
2023/01/05 15:06:15;;;;;;;9.83;2.73;;;;;;;;;;6215233;23;20458;-78
2023/01/05 15:08:59;;;;;;;6.10;1.73;;;;;;;;;;6212889;23;20854;-78
2023/01/05 15:11:35;;;;;;;9.77;3.00;;;;;;;;;;6214569;23;20405;-78
2023/01/05 15:16:47;;;;;;;11.97;2.60;;;;;;;;;;6214975;23;21082;-78
2023/01/05 15:19:15;;;;;;;12.50;2.97;;;;;;;;;;6215125;23;20375;-78
2023/01/05 15:22:04;;;;;;;7.50;2.50;;;;;;;;;;6215041;23;20370;-78
2023/01/05 15:25:02;;;;;;;9.80;2.53;;;;;;;;;;6215845;23;20490;-79
2023/01/05 15:27:36;;;;;;;9.33;2.77;;;;;;;;;;6195871;23;20382;-79
2023/01/05 15:30:20;;;;;;;8.00;2.63;;;;;;;;;;6212942;23;20442;-79
2023/01/05 15:32:48;;;;;;;11.13;3.37;;;;;;;;;;6215446;23;20397;-78